Time;durP1;ratioP1;P1;durP2;ratioP2;P2;SDS_P1;SDS_P2;PMS_P1;PMS_P2;Temp;Humidity;BMP_temperature;BMP_pressure;BME280_temperature;BME280_humidity;BME280_pressure;Samples;Min_cycle;Max_cycle;Signal;HPM_P1;HPM_P2
2022/03/06 00:01:32;;;;;;;20.77;10.80;;;2.20;99.90;;;;;;5069659;28;20425;-71
2022/03/06 00:03:58;;;;;;;19.30;10.48;;;1.30;99.90;;;;;;5072087;28;20131;-70
2022/03/06 00:06:24;;;;;;;18.30;9.88;;;1.30;99.90;;;;;;5093649;28;20071;-70
2022/03/06 00:08:50;;;;;;;17.63;9.98;;;1.40;99.90;;;;;;5073873;28;20086;-70
2022/03/06 00:11:16;;;;;;;17.92;9.50;;;1.40;99.90;;;;;;5092253;28;20051;-70
2022/03/06 00:13:41;;;;;;;17.70;10.05;;;1.50;99.90;;;;;;5070993;28;20447;-70
2022/03/06 00:16:07;;;;;;;20.30;10.50;;;1.60;99.90;;;;;;5093885;28;20078;-71
2022/03/06 00:18:36;;;;;;;19.20;9.93;;;1.60;99.90;;;;;;5094142;28;20123;-70
2022/03/06 00:21:03;;;;;;;17.83;9.52;;;1.70;99.90;;;;;;5077939;28;20048;-70
2022/03/06 00:23:29;;;;;;;15.90;9.05;;;1.70;99.90;;;;;;5094080;28;20040;-71
2022/03/06 00:25:55;;;;;;;16.85;9.25;;;1.70;99.90;;;;;;5076561;28;20046;-71
2022/03/06 00:28:21;;;;;;;14.93;9.60;;;1.80;99.90;;;;;;5093385;28;20047;-70
2022/03/06 00:30:48;;;;;;;16.23;8.98;;;1.80;99.90;;;;;;5077256;28;20040;-70
2022/03/06 00:33:13;;;;;;;14.75;8.95;;;1.80;99.90;;;;;;5093789;28;20044;-70
2022/03/06 00:35:39;;;;;;;16.95;8.90;;;1.80;99.90;;;;;;5076564;28;20055;-71
2022/03/06 00:38:05;;;;;;;15.30;8.73;;;1.80;99.90;;;;;;5075970;28;20052;-71
2022/03/06 00:40:31;;;;;;;18.55;9.15;;;1.80;99.90;;;;;;5075833;28;20040;-75
2022/03/06 00:42:57;;;;;;;14.80;8.90;;;1.80;99.90;;;;;;5058670;28;20102;-70
2022/03/06 00:45:23;;;;;;;15.00;8.55;;;1.90;99.90;;;;;;5093525;28;20044;-71
2022/03/06 00:47:49;;;;;;;15.45;8.70;;;1.90;99.90;;;;;;5076492;28;20062;-70
2022/03/06 00:50:15;;;;;;;15.35;8.40;;;1.90;99.90;;;;;;5093062;28;20040;-71
2022/03/06 00:52:41;;;;;;;14.43;7.53;;;1.90;99.90;;;;;;5093048;28;20044;-70
2022/03/06 00:55:08;;;;;;;12.35;7.70;;;1.90;99.90;;;;;;5059949;28;20126;-71
2022/03/06 00:57:34;;;;;;;15.38;8.02;;;1.80;99.90;;;;;;5057978;28;20384;-71
2022/03/06 01:00:00;;;;;;;12.25;7.38;;;1.80;99.90;;;;;;5073119;28;20048;-72
2022/03/06 01:02:27;;;;;;;13.75;7.72;;;1.90;99.90;;;;;;5076455;28;20036;-71
2022/03/06 01:04:53;;;;;;;14.68;8.10;;;1.90;99.90;;;;;;5093107;28;20072;-71
2022/03/06 01:07:19;;;;;;;16.08;8.20;;;1.90;99.90;;;;;;5076262;28;20416;-71
2022/03/06 01:09:45;;;;;;;13.90;7.53;;;1.90;99.90;;;;;;5071005;28;20045;-72
2022/03/06 01:12:12;;;;;;;13.60;7.15;;;1.80;99.90;;;;;;5092657;28;20048;-72
2022/03/06 01:14:38;;;;;;;12.18;7.25;;;1.80;99.90;;;;;;5091817;28;20062;-72
2022/03/06 01:17:05;;;;;;;13.05;7.75;;;1.90;99.90;;;;;;5093391;28;20052;-71
2022/03/06 01:19:31;;;;;;;17.63;7.70;;;1.80;99.90;;;;;;5074714;28;20507;-71
2022/03/06 01:21:57;;;;;;;12.75;7.40;;;1.90;99.90;;;;;;5075576;28;20145;-71
2022/03/06 01:24:22;;;;;;;13.25;7.03;;;2.80;99.90;;;;;;5059094;28;20052;-72
2022/03/06 01:26:48;;;;;;;13.63;7.47;;;1.90;99.90;;;;;;5058978;28;20051;-71
2022/03/06 01:29:14;;;;;;;11.70;7.18;;;1.90;99.90;;;;;;5075781;28;20042;-71
2022/03/06 01:31:40;;;;;;;11.25;7.18;;;1.90;99.90;;;;;;5073294;28;20056;-71
2022/03/06 01:34:07;;;;;;;18.20;6.97;;;1.80;99.90;;;;;;5093563;28;20118;-70
2022/03/06 01:36:33;;;;;;;13.55;7.18;;;1.90;99.90;;;;;;5092974;28;20040;-71
2022/03/06 01:38:59;;;;;;;14.98;8.23;;;2.50;99.90;;;;;;5075917;28;20123;-72
2022/03/06 01:41:25;;;;;;;10.93;7.00;;;1.90;99.90;;;;;;5075262;28;20063;-71
2022/03/06 01:43:52;;;;;;;12.50;7.90;;;1.90;99.90;;;;;;5091466;28;20544;-71
2022/03/06 01:46:18;;;;;;;12.10;7.03;;;1.90;99.90;;;;;;5092783;28;20052;-71
2022/03/06 01:48:44;;;;;;;13.07;7.28;;;1.50;99.90;;;;;;5092582;28;20353;-71
2022/03/06 01:51:10;;;;;;;12.35;7.80;;;1.90;99.90;;;;;;5075394;28;20055;-71
2022/03/06 01:53:36;;;;;;;12.38;7.28;;;1.90;99.90;;;;;;5091694;28;20044;-72
2022/03/06 01:56:02;;;;;;;14.20;7.68;;;1.90;99.90;;;;;;5092577;28;20104;-71
2022/03/06 01:58:29;;;;;;;12.23;7.30;;;1.90;99.90;;;;;;5074388;28;20491;-71
2022/03/06 02:00:54;;;;;;;9.40;6.68;;;1.90;99.90;;;;;;5075378;28;20047;-72
2022/03/06 02:03:20;;;;;;;11.05;6.85;;;2.20;99.90;;;;;;5054578;28;20041;-71
2022/03/06 02:05:48;;;;;;;13.75;6.78;;;1.90;99.90;;;;;;5075030;28;20049;-71
2022/03/06 02:08:14;;;;;;;13.00;7.28;;;1.90;99.90;;;;;;5092297;28;20055;-71
2022/03/06 02:10:40;;;;;;;15.80;7.40;;;1.90;99.90;;;;;;5075497;28;20052;-71
2022/03/06 02:13:06;;;;;;;14.18;7.68;;;2.00;99.90;;;;;;5057745;28;20039;-71
2022/03/06 02:15:32;;;;;;;13.05;7.82;;;1.90;99.90;;;;;;5091669;28;20192;-71
2022/03/06 02:17:58;;;;;;;12.48;7.45;;;2.30;99.90;;;;;;5054644;28;20051;-71
2022/03/06 02:20:26;;;;;;;13.40;7.75;;;1.80;99.90;;;;;;5071625;28;20050;-71
2022/03/06 02:22:54;;;;;;;11.52;7.28;;;1.80;99.90;;;;;;5090729;28;20483;-71
2022/03/06 02:25:28;;;;;;;11.05;7.03;;;1.80;99.90;;;;;;5090555;28;20066;-71
2022/03/06 02:27:56;;;;;;;13.30;6.75;;;1.70;99.90;;;;;;5074573;28;20044;-71
2022/03/06 02:30:31;;;;;;;12.80;7.38;;;1.70;99.90;;;;;;5091352;28;20097;-71
2022/03/06 02:33:02;;;;;;;12.90;6.93;;;2.50;99.90;;;;;;5073801;28;20040;-71
2022/03/06 02:35:28;;;;;;;11.73;6.70;;;1.70;99.90;;;;;;5074636;28;20039;-71
2022/03/06 02:37:54;;;;;;;13.05;6.88;;;1.70;99.90;;;;;;5085304;28;20036;-71
2022/03/06 02:40:22;;;;;;;11.88;6.57;;;1.70;99.90;;;;;;5074501;28;20496;-71
2022/03/06 02:42:49;;;;;;;12.30;6.28;;;1.70;99.90;;;;;;5090557;28;20130;-71
2022/03/06 02:45:18;;;;;;;15.43;6.18;;;1.70;99.90;;;;;;5076734;28;20046;-71
2022/03/06 02:47:46;;;;;;;11.48;6.20;;;1.70;99.90;;;;;;5090965;28;20048;-71
2022/03/06 02:50:14;;;;;;;12.43;6.35;;;1.70;99.90;;;;;;5079514;28;20038;-70
2022/03/06 02:52:40;;;;;;;11.85;6.15;;;1.70;99.90;;;;;;5090885;28;20036;-71
2022/03/06 02:55:07;;;;;;;12.65;6.32;;;1.70;99.90;;;;;;5094570;28;20076;-71
2022/03/06 02:57:34;;;;;;;10.48;5.85;;;1.70;99.90;;;;;;5058776;28;20044;-71
2022/03/06 02:59:59;;;;;;;16.35;6.07;;;1.70;99.90;;;;;;5096757;28;20122;-71
2022/03/06 03:02:25;;;;;;;9.57;5.68;;;1.80;99.90;;;;;;5081593;28;20115;-71
2022/03/06 03:04:51;;;;;;;9.15;5.40;;;1.70;99.90;;;;;;5063557;28;20055;-71
2022/03/06 03:07:17;;;;;;;10.07;5.53;;;1.80;99.90;;;;;;5059109;28;20038;-70
2022/03/06 03:09:43;;;;;;;8.93;5.25;;;1.80;99.90;;;;;;5054524;28;20036;-70
2022/03/06 03:12:09;;;;;;;11.25;5.22;;;1.80;99.90;;;;;;5083946;28;20035;-70
2022/03/06 03:14:36;;;;;;;12.27;5.10;;;1.80;99.90;;;;;;5075244;28;20047;-71
2022/03/06 03:17:04;;;;;;;10.00;5.22;;;1.80;99.90;;;;;;5066076;28;20040;-72
2022/03/06 03:19:30;;;;;;;8.10;5.45;;;1.80;99.90;;;;;;5096573;28;20032;-71
2022/03/06 03:21:56;;;;;;;11.75;5.85;;;1.70;99.90;;;;;;5058779;28;20452;-72
2022/03/06 03:24:23;;;;;;;10.70;5.45;;;1.70;99.90;;;;;;5091736;28;20040;-71
2022/03/06 03:26:49;;;;;;;11.38;5.78;;;1.60;99.90;;;;;;5091924;28;20055;-72
2022/03/06 03:29:15;;;;;;;10.48;5.72;;;0.90;99.90;;;;;;5090537;28;20039;-71
2022/03/06 03:31:41;;;;;;;11.85;5.55;;;1.60;99.90;;;;;;5090900;28;20115;-71
2022/03/06 03:34:07;;;;;;;13.43;5.78;;;1.50;99.90;;;;;;5099078;28;20136;-71
2022/03/06 03:36:33;;;;;;;11.60;5.60;;;1.50;99.90;;;;;;5074507;28;20102;-71
2022/03/06 03:38:59;;;;;;;10.95;5.43;;;1.40;99.90;;;;;;5079009;28;20036;-71
2022/03/06 03:41:25;;;;;;;9.07;5.10;;;1.30;99.90;;;;;;5089711;28;20044;-72
2022/03/06 03:43:52;;;;;;;10.35;5.45;;;1.40;99.90;;;;;;5102198;28;20058;-72
2022/03/06 03:46:18;;;;;;;10.68;5.40;;;1.30;99.90;;;;;;5086330;28;20056;-72
2022/03/06 03:48:44;;;;;;;9.25;5.38;;;1.30;99.90;;;;;;5098633;28;20063;-72
2022/03/06 03:51:10;;;;;;;10.35;5.65;;;1.30;99.90;;;;;;5040154;28;20071;-72
2022/03/06 03:53:36;;;;;;;11.98;5.50;;;1.30;99.90;;;;;;5102566;28;20486;-71
2022/03/06 03:56:06;;;;;;;8.75;4.82;;;1.30;99.90;;;;;;5082442;28;20492;-72
2022/03/06 03:58:33;;;;;;;11.60;5.78;;;1.20;99.90;;;;;;5091646;28;20044;-72
2022/03/06 04:00:59;;;;;;;8.45;5.38;;;1.20;99.90;;;;;;5093266;28;20067;-72
2022/03/06 04:03:25;;;;;;;11.43;5.20;;;1.20;99.90;;;;;;5085320;28;20120;-72
2022/03/06 04:05:51;;;;;;;12.50;5.40;;;1.20;99.90;;;;;;5061102;28;20046;-72
2022/03/06 04:08:18;;;;;;;9.68;5.00;;;2.00;99.90;;;;;;5095044;28;20076;-71
2022/03/06 04:10:44;;;;;;;9.32;5.10;;;1.20;99.90;;;;;;5074252;28;20250;-72
2022/03/06 04:13:10;;;;;;;9.85;5.30;;;1.20;99.90;;;;;;5093979;28;20036;-72
2022/03/06 04:15:36;;;;;;;8.85;5.15;;;1.20;99.90;;;;;;5087486;28;20031;-73
2022/03/06 04:18:03;;;;;;;9.10;5.22;;;1.20;99.90;;;;;;5097704;28;20097;-72
2022/03/06 04:20:29;;;;;;;9.20;5.15;;;1.20;99.90;;;;;;5092057;28;20140;-72
2022/03/06 04:22:56;;;;;;;9.45;5.22;;;1.20;99.90;;;;;;5101913;28;20036;-72
2022/03/06 04:25:22;;;;;;;9.02;4.78;;;0.40;99.90;;;;;;5075127;28;20072;-73
2022/03/06 04:27:48;;;;;;;9.38;4.60;;;1.10;99.90;;;;;;5099434;28;20051;-72
2022/03/06 04:30:15;;;;;;;11.38;4.97;;;1.30;99.90;;;;;;5101005;28;20398;-72
2022/03/06 04:32:41;;;;;;;10.02;4.80;;;1.00;99.90;;;;;;5069267;28;20040;-72
2022/03/06 04:35:07;;;;;;;7.82;4.80;;;1.00;99.90;;;;;;5091846;28;20537;-72
2022/03/06 04:37:34;;;;;;;6.25;4.25;;;1.00;99.90;;;;;;5075227;28;20048;-72
2022/03/06 04:40:00;;;;;;;8.98;4.28;;;0.10;99.90;;;;;;5099672;28;20385;-73
2022/03/06 04:42:26;;;;;;;11.48;4.85;;;0.90;99.90;;;;;;5061459;28;20117;-72
2022/03/06 04:44:52;;;;;;;11.93;4.65;;;1.10;99.90;;;;;;5095832;28;20053;-74
2022/03/06 04:47:18;;;;;;;17.83;7.20;;;0.80;99.90;;;;;;5063042;28;20051;-72
2022/03/06 04:49:44;;;;;;;8.25;4.22;;;1.00;99.90;;;;;;5073642;28;20104;-74
2022/03/06 04:52:09;;;;;;;10.63;4.40;;;0.80;99.90;;;;;;5081560;28;20509;-72
2022/03/06 04:54:35;;;;;;;7.82;4.22;;;0.80;99.90;;;;;;5091094;28;20088;-72
2022/03/06 04:57:02;;;;;;;12.07;4.72;;;0.70;99.90;;;;;;5102450;28;20119;-73
2022/03/06 04:59:28;;;;;;;7.53;4.30;;;0.70;99.90;;;;;;5104024;28;20048;-71
2022/03/06 05:01:55;;;;;;;7.82;3.90;;;0.60;99.90;;;;;;5080387;28;20046;-72
2022/03/06 05:04:21;;;;;;;8.88;4.40;;;0.70;99.90;;;;;;5086024;28;20840;-72
2022/03/06 05:06:47;;;;;;;10.93;4.32;;;0.60;99.90;;;;;;5092679;28;20035;-71
2022/03/06 05:09:13;;;;;;;8.40;4.07;;;0.60;99.90;;;;;;5121831;27;20039;-72
2022/03/06 05:11:39;;;;;;;8.65;4.85;;;0.60;99.90;;;;;;5088782;28;20061;-73
2022/03/06 05:14:05;;;;;;;7.90;4.22;;;0.60;99.90;;;;;;5076556;28;20035;-72
2022/03/06 05:16:31;;;;;;;8.02;4.10;;;0.60;99.90;;;;;;5096531;28;20039;-73
2022/03/06 05:18:57;;;;;;;7.15;4.20;;;0.60;99.90;;;;;;5083079;28;20353;-72
2022/03/06 05:21:23;;;;;;;7.93;3.95;;;0.60;99.90;;;;;;5080665;28;20083;-72
2022/03/06 05:23:49;;;;;;;8.27;4.10;;;0.50;99.90;;;;;;5082551;28;20048;-71
2022/03/06 05:26:15;;;;;;;7.60;4.57;;;0.60;99.90;;;;;;5082547;28;20047;-72
2022/03/06 05:28:41;;;;;;;7.60;4.45;;;-0.30;99.90;;;;;;5085980;28;20089;-72
2022/03/06 05:31:08;;;;;;;10.02;3.92;;;0.50;99.90;;;;;;5073509;28;20159;-71
2022/03/06 05:33:34;;;;;;;7.72;3.97;;;1.30;99.90;;;;;;5094889;28;20044;-71
2022/03/06 05:36:00;;;;;;;6.78;4.20;;;0.40;99.90;;;;;;5096751;28;20045;-72
2022/03/06 05:38:26;;;;;;;7.45;4.00;;;0.30;99.90;;;;;;5106908;28;21056;-71
2022/03/06 05:40:51;;;;;;;7.28;3.85;;;0.30;99.90;;;;;;5081832;28;20132;-71
2022/03/06 05:43:17;;;;;;;10.25;4.40;;;0.30;99.90;;;;;;5068627;28;20047;-72
2022/03/06 05:45:45;;;;;;;8.07;4.00;;;0.30;99.90;;;;;;5079387;28;20498;-68
2022/03/06 05:48:11;;;;;;;7.32;4.18;;;0.20;99.90;;;;;;5093382;28;20058;-69
2022/03/06 05:50:37;;;;;;;9.18;4.13;;;0.20;99.90;;;;;;5079654;28;20044;-70
2022/03/06 05:53:03;;;;;;;7.60;3.70;;;0.20;99.90;;;;;;5100219;28;20032;-69
2022/03/06 05:55:30;;;;;;;9.25;4.05;;;0.20;99.90;;;;;;5096823;28;20181;-69
2022/03/06 05:57:56;;;;;;;7.70;4.03;;;0.20;99.90;;;;;;5090045;28;20077;-72
2022/03/06 06:00:22;;;;;;;7.90;4.00;;;0.10;99.90;;;;;;5077735;28;20040;-71
2022/03/06 06:02:49;;;;;;;7.60;4.45;;;0.10;99.90;;;;;;5105684;28;20456;-69
2022/03/06 06:05:15;;;;;;;6.85;3.97;;;0.00;99.90;;;;;;5091025;28;20047;-69
2022/03/06 06:07:41;;;;;;;7.32;4.15;;;0.00;99.90;;;;;;5096902;28;20044;-69
2022/03/06 06:10:08;;;;;;;6.63;3.90;;;0.00;99.90;;;;;;5066283;28;20095;-69
2022/03/06 06:12:34;;;;;;;8.13;3.92;;;0.00;99.90;;;;;;5092717;28;20393;-70
2022/03/06 06:15:00;;;;;;;9.38;4.32;;;-0.10;99.90;;;;;;5081269;28;20036;-70
2022/03/06 06:17:26;;;;;;;6.25;4.15;;;-0.10;99.90;;;;;;5060169;28;20631;-70
2022/03/06 06:19:52;;;;;;;7.72;3.70;;;-0.10;99.90;;;;;;5105621;28;20047;-70
2022/03/06 06:22:18;;;;;;;5.82;4.28;;;-0.10;99.90;;;;;;5106014;28;20036;-71
2022/03/06 06:24:44;;;;;;;10.88;5.10;;;-0.10;99.90;;;;;;5087744;28;20043;-70
2022/03/06 06:27:10;;;;;;;9.60;4.90;;;-0.10;99.90;;;;;;5077100;28;20070;-70
2022/03/06 06:29:36;;;;;;;8.13;4.15;;;-0.20;99.90;;;;;;5086375;28;20051;-70
2022/03/06 06:32:02;;;;;;;8.65;4.65;;;-0.20;99.90;;;;;;5106422;28;20040;-69
2022/03/06 06:34:28;;;;;;;6.55;4.38;;;-0.20;99.90;;;;;;5090768;28;20043;-70
2022/03/06 06:36:57;;;;;;;10.23;4.80;;;-0.20;99.90;;;;;;5057848;28;20051;-69
2022/03/06 06:39:25;;;;;;;7.40;4.60;;;-0.20;99.90;;;;;;5097885;28;20101;-69
2022/03/06 06:41:51;;;;;;;7.97;4.60;;;-0.20;99.90;;;;;;5063032;28;20216;-69
2022/03/06 06:44:17;;;;;;;10.65;4.60;;;0.10;99.90;;;;;;5092433;28;20134;-69
2022/03/06 06:46:43;;;;;;;7.28;4.60;;;-0.10;99.90;;;;;;5057435;28;20533;-69
2022/03/06 06:49:10;;;;;;;7.13;4.13;;;-0.20;99.90;;;;;;5083232;28;20043;-69
2022/03/06 06:51:38;;;;;;;10.27;5.22;;;-0.20;99.90;;;;;;5054512;28;20378;-69
2022/03/06 06:54:05;;;;;;;9.63;5.53;;;-0.10;99.90;;;;;;5105244;28;20039;-69
2022/03/06 06:56:31;;;;;;;8.57;4.75;;;-0.10;99.90;;;;;;5099783;28;20105;-68
2022/03/06 06:58:57;;;;;;;6.03;4.35;;;-0.10;99.90;;;;;;5076008;28;20036;-69
2022/03/06 07:01:23;;;;;;;8.77;4.63;;;0.00;99.90;;;;;;5089889;28;20051;-69
2022/03/06 07:03:49;;;;;;;7.78;4.38;;;0.10;99.90;;;;;;5062619;28;20036;-70
2022/03/06 07:06:15;;;;;;;6.97;4.10;;;1.00;99.90;;;;;;5058304;28;20177;-70
2022/03/06 07:08:41;;;;;;;7.10;4.20;;;0.30;99.90;;;;;;5079614;28;20047;-70
2022/03/06 07:11:07;;;;;;;7.03;3.85;;;0.30;99.90;;;;;;5102592;28;20040;-70
2022/03/06 07:13:34;;;;;;;5.50;3.65;;;0.40;99.90;;;;;;5086793;28;20031;-70
2022/03/06 07:16:00;;;;;;;6.82;3.67;;;0.50;99.90;;;;;;5098574;28;20046;-72
2022/03/06 07:18:26;;;;;;;6.63;4.07;;;0.60;99.90;;;;;;5083054;28;20050;-71
2022/03/06 07:20:53;;;;;;;7.32;3.67;;;0.70;99.90;;;;;;5078250;28;20040;-71
2022/03/06 07:23:19;;;;;;;5.90;3.80;;;0.90;99.90;;;;;;5071532;28;20043;-70
2022/03/06 07:25:45;;;;;;;7.28;4.15;;;1.00;99.90;;;;;;5083455;28;20822;-70
2022/03/06 07:28:11;;;;;;;6.25;3.50;;;1.10;99.90;;;;;;5067769;28;20051;-70
2022/03/06 07:30:37;;;;;;;11.02;3.60;;;1.20;99.90;;;;;;5082329;28;20476;-70
2022/03/06 07:33:03;;;;;;;5.63;3.50;;;1.30;99.90;;;;;;5095304;28;20463;-72
2022/03/06 07:35:29;;;;;;;6.18;3.58;;;1.40;99.90;;;;;;5097192;28;20476;-70
2022/03/06 07:37:55;;;;;;;5.57;3.63;;;2.40;99.90;;;;;;5073783;28;20468;-72
2022/03/06 07:40:23;;;;;;;8.98;3.70;;;1.60;99.90;;;;;;5072832;28;20827;-70
2022/03/06 07:42:49;;;;;;;4.60;3.05;;;1.70;99.90;;;;;;5064608;28;20108;-70
2022/03/06 07:45:16;;;;;;;5.63;3.03;;;1.80;99.90;;;;;;5078308;28;20047;-70
2022/03/06 07:47:42;;;;;;;5.50;3.30;;;1.90;99.90;;;;;;5059401;28;20096;-71
2022/03/06 07:50:10;;;;;;;3.88;3.25;;;2.00;99.90;;;;;;5073886;28;20047;-70
2022/03/06 07:52:37;;;;;;;6.75;3.60;;;2.10;99.90;;;;;;5091461;28;20127;-71
2022/03/06 07:55:04;;;;;;;6.13;3.60;;;2.20;99.90;;;;;;5091393;28;20043;-69
2022/03/06 07:57:30;;;;;;;4.50;3.33;;;2.30;99.90;;;;;;5074866;28;20032;-70
2022/03/06 07:59:56;;;;;;;4.80;3.05;;;2.40;99.90;;;;;;5077148;28;20035;-70
2022/03/06 08:02:22;;;;;;;5.03;3.03;;;2.50;99.90;;;;;;5082208;28;20083;-71
2022/03/06 08:04:48;;;;;;;5.25;3.10;;;2.50;99.90;;;;;;5083513;28;20127;-70
2022/03/06 08:07:14;;;;;;;5.22;3.30;;;2.60;99.90;;;;;;5090090;28;20082;-68
2022/03/06 08:09:39;;;;;;;3.88;3.05;;;2.70;99.90;;;;;;5039456;28;20032;-70
2022/03/06 08:12:06;;;;;;;4.75;3.03;;;2.80;99.90;;;;;;5090665;28;20040;-70
2022/03/06 08:14:32;;;;;;;7.70;3.28;;;2.50;99.90;;;;;;5055210;28;20048;-73
2022/03/06 08:16:58;;;;;;;6.82;3.03;;;3.00;99.90;;;;;;5072637;28;20117;-69
2022/03/06 08:19:24;;;;;;;4.53;2.80;;;3.10;99.90;;;;;;5055801;28;20108;-70
2022/03/06 08:21:50;;;;;;;7.20;3.47;;;3.20;99.90;;;;;;5090862;28;20177;-70
2022/03/06 08:24:16;;;;;;;5.75;3.00;;;3.30;99.90;;;;;;5075504;28;20047;-70
2022/03/06 08:26:43;;;;;;;6.10;3.08;;;3.50;99.90;;;;;;5094007;28;20094;-69
2022/03/06 08:29:10;;;;;;;5.40;3.20;;;3.60;99.90;;;;;;5076336;28;20036;-69
2022/03/06 08:31:36;;;;;;;5.10;3.03;;;3.60;99.90;;;;;;5093723;28;20040;-70
2022/03/06 08:34:03;;;;;;;6.95;3.30;;;3.60;99.90;;;;;;5093119;28;20040;-71
2022/03/06 08:36:30;;;;;;;5.13;3.13;;;3.70;99.90;;;;;;5077395;28;20464;-71
2022/03/06 08:38:58;;;;;;;5.43;4.10;;;3.80;99.90;;;;;;5073312;28;20051;-71
2022/03/06 08:41:24;;;;;;;4.03;3.30;;;3.90;99.90;;;;;;5093490;28;20043;-71
2022/03/06 08:43:50;;;;;;;6.00;3.45;;;4.00;99.90;;;;;;5080242;28;20056;-82
2022/03/06 08:46:16;;;;;;;3.70;3.10;;;4.00;99.90;;;;;;5092824;28;20040;-77
2022/03/06 08:48:42;;;;;;;5.75;3.30;;;4.10;99.90;;;;;;5075338;28;20094;-75
2022/03/06 08:51:08;;;;;;;5.10;3.05;;;4.10;99.90;;;;;;5093195;28;20048;-76
2022/03/06 08:53:34;;;;;;;6.20;3.25;;;4.10;99.90;;;;;;5091376;28;20125;-79
2022/03/06 08:56:00;;;;;;;4.82;3.13;;;4.20;99.90;;;;;;5093003;28;20071;-78
2022/03/06 08:58:27;;;;;;;5.32;3.20;;;4.80;99.90;;;;;;5074941;28;20043;-75
2022/03/06 09:00:54;;;;;;;5.20;3.15;;;3.70;99.90;;;;;;5072625;28;20040;-75
2022/03/06 09:03:19;;;;;;;8.00;3.80;;;4.30;99.90;;;;;;5085792;28;20044;-75
2022/03/06 09:05:46;;;;;;;4.43;3.33;;;4.40;99.90;;;;;;5087594;28;20545;-75
2022/03/06 09:08:12;;;;;;;5.72;3.38;;;4.50;99.90;;;;;;5076336;28;20043;-74
2022/03/06 09:10:39;;;;;;;6.90;3.30;;;4.50;99.90;;;;;;5075725;28;20361;-75
2022/03/06 09:13:07;;;;;;;6.75;3.38;;;4.60;99.90;;;;;;5090951;28;20053;-75
2022/03/06 09:15:34;;;;;;;4.35;3.17;;;4.70;99.90;;;;;;5092036;28;20396;-75
2022/03/06 09:18:00;;;;;;;3.97;2.92;;;4.70;99.90;;;;;;5058166;28;20048;-75
2022/03/06 09:20:26;;;;;;;5.63;3.45;;;4.80;99.90;;;;;;5075628;28;20160;-75
2022/03/06 09:22:53;;;;;;;4.97;3.20;;;4.70;99.90;;;;;;5071376;28;20036;-75
2022/03/06 09:25:19;;;;;;;4.88;3.00;;;4.90;99.90;;;;;;5073936;28;20040;-75
2022/03/06 09:27:45;;;;;;;5.72;3.08;;;5.00;99.90;;;;;;5066706;28;20048;-75
2022/03/06 09:30:11;;;;;;;4.65;3.22;;;5.20;99.90;;;;;;5093868;28;20068;-74
2022/03/06 09:32:38;;;;;;;6.15;3.28;;;5.30;99.90;;;;;;5087088;28;20040;-74
2022/03/06 09:35:05;;;;;;;5.22;3.28;;;5.50;99.90;;;;;;5087176;28;20055;-82
2022/03/06 09:37:33;;;;;;;4.95;2.70;;;5.60;99.90;;;;;;5103178;28;20036;-75
2022/03/06 09:40:00;;;;;;;5.63;3.10;;;5.70;99.90;;;;;;5094908;28;20039;-73
2022/03/06 09:42:26;;;;;;;4.78;3.10;;;5.80;99.90;;;;;;5064497;28;20041;-73
2022/03/06 09:44:52;;;;;;;4.40;3.08;;;5.90;99.90;;;;;;5087313;28;20127;-73
2022/03/06 09:47:18;;;;;;;4.88;3.00;;;6.00;99.90;;;;;;5081737;28;20051;-73
2022/03/06 09:49:46;;;;;;;3.83;2.70;;;6.00;99.90;;;;;;5074414;28;20044;-74
2022/03/06 09:52:12;;;;;;;5.50;2.95;;;5.90;95.80;;;;;;5090501;28;20040;-72
2022/03/06 09:54:38;;;;;;;6.45;2.97;;;5.80;99.90;;;;;;5091951;28;20494;-68
2022/03/06 09:57:05;;;;;;;3.75;3.08;;;5.80;99.90;;;;;;5075626;28;20040;-68
2022/03/06 09:59:32;;;;;;;6.18;3.30;;;5.80;99.90;;;;;;5091705;28;20055;-71
2022/03/06 10:02:02;;;;;;;5.25;3.00;;;6.00;99.90;;;;;;5070658;28;20052;-69
2022/03/06 10:04:31;;;;;;;7.78;3.20;;;6.10;99.90;;;;;;5090916;28;20035;-68
2022/03/06 10:06:58;;;;;;;4.80;2.97;;;6.10;99.90;;;;;;5092710;28;20503;-69
2022/03/06 10:09:24;;;;;;;4.97;2.80;;;6.30;99.90;;;;;;5091884;28;20032;-68
2022/03/06 10:11:52;;;;;;;3.70;3.10;;;6.40;98.20;;;;;;5075385;28;20139;-68
2022/03/06 10:14:35;;;;;;;6.03;3.72;;;6.40;95.10;;;;;;5090197;28;20035;-69
2022/03/06 10:17:15;;;;;;;5.55;3.17;;;6.40;94.00;;;;;;5058892;28;20097;-69
2022/03/06 10:19:56;;;;;;;5.63;3.17;;;6.40;93.10;;;;;;5091831;28;20390;-68
2022/03/06 10:22:28;;;;;;;5.37;2.93;;;6.50;95.10;;;;;;5091236;28;20085;-68
2022/03/06 10:25:07;;;;;;;4.65;2.97;;;6.60;95.90;;;;;;5091006;28;20765;-68
2022/03/06 10:27:48;;;;;;;6.65;3.55;;;6.60;91.50;;;;;;5091704;28;20044;-70
2022/03/06 10:30:39;;;;;;;6.20;3.20;;;6.70;90.70;;;;;;5091272;28;20432;-69
2022/03/06 10:33:18;;;;;;;4.77;3.17;;;6.80;87.80;;;;;;5090269;28;20059;-68
2022/03/06 10:35:48;;;;;;;5.47;3.33;;;6.70;90.60;;;;;;5075033;28;20173;-70
2022/03/06 10:38:26;;;;;;;4.53;3.45;;;7.00;94.10;;;;;;5091491;28;20126;-69
2022/03/06 10:41:00;;;;;;;4.32;3.05;;;7.00;92.60;;;;;;5074321;28;20161;-69
2022/03/06 10:43:29;;;;;;;3.42;3.05;;;7.00;91.40;;;;;;5074512;28;20052;-69
2022/03/06 10:46:17;;;;;;;4.97;3.25;;;6.90;88.50;;;;;;5073752;28;20068;-71
2022/03/06 10:48:53;;;;;;;8.73;3.53;;;7.10;89.20;;;;;;5091481;28;20380;-69
2022/03/06 10:51:20;;;;;;;5.20;3.30;;;7.00;90.40;;;;;;5091078;28;21195;-68
2022/03/06 10:53:54;;;;;;;6.38;3.60;;;7.10;90.20;;;;;;5089163;28;20054;-69
2022/03/06 10:56:20;;;;;;;5.22;3.22;;;7.40;89.40;;;;;;5074486;28;20127;-67
2022/03/06 10:58:47;;;;;;;4.65;3.30;;;7.60;89.90;;;;;;5090964;28;20082;-68
2022/03/06 11:01:14;;;;;;;4.40;3.33;;;7.50;89.40;;;;;;5057445;28;20476;-69
2022/03/06 11:03:50;;;;;;;4.43;3.30;;;7.80;88.90;;;;;;5073517;28;20067;-68
2022/03/06 11:06:18;;;;;;;6.13;3.40;;;7.70;84.70;;;;;;5074175;28;20083;-68
2022/03/06 11:08:44;;;;;;;5.25;3.10;;;7.70;86.60;;;;;;5091225;28;20075;-68
2022/03/06 11:11:12;;;;;;;5.95;3.38;;;7.70;87.70;;;;;;5073735;28;20151;-72
2022/03/06 11:13:38;;;;;;;6.82;3.42;;;7.70;83.20;;;;;;5089998;28;20044;-71
2022/03/06 11:16:05;;;;;;;5.60;3.60;;;7.80;85.90;;;;;;5094637;28;20032;-72
2022/03/06 11:18:32;;;;;;;4.07;3.55;;;7.90;86.40;;;;;;5071693;28;20491;-72
2022/03/06 11:21:01;;;;;;;6.28;3.60;;;8.10;85.40;;;;;;5091065;28;20089;-73
2022/03/06 11:23:38;;;;;;;5.50;3.90;;;8.10;82.30;;;;;;5089282;28;20043;-73
2022/03/06 11:26:09;;;;;;;5.03;3.13;;;8.30;82.40;;;;;;5090464;28;20380;-72
2022/03/06 11:28:57;;;;;;;5.65;3.42;;;8.30;80.80;;;;;;5073650;28;20043;-72
2022/03/06 11:31:23;;;;;;;4.55;3.50;;;8.40;83.70;;;;;;5074478;28;20040;-73
2022/03/06 11:34:03;;;;;;;5.63;3.45;;;8.40;83.30;;;;;;5073541;28;20132;-73
2022/03/06 11:36:30;;;;;;;5.47;3.45;;;8.60;81.90;;;;;;5082109;28;20036;-73
2022/03/06 11:38:57;;;;;;;5.32;3.50;;;8.80;82.30;;;;;;5090552;28;20036;-73
2022/03/06 11:41:27;;;;;;;5.28;3.80;;;9.10;83.70;;;;;;5074154;28;20149;-72
2022/03/06 11:43:54;;;;;;;6.53;3.67;;;9.10;80.60;;;;;;5083117;28;20055;-73
2022/03/06 11:46:26;;;;;;;4.95;3.63;;;8.70;82.30;;;;;;5090327;28;20044;-73
2022/03/06 11:48:55;;;;;;;4.63;3.78;;;8.60;80.60;;;;;;5041322;28;20048;-69
2022/03/06 11:51:24;;;;;;;6.78;3.83;;;8.80;86.80;;;;;;5089730;28;20549;-69
2022/03/06 11:54:09;;;;;;;4.07;3.50;;;8.90;84.30;;;;;;5067289;28;20041;-69
2022/03/06 11:56:35;;;;;;;5.70;3.50;;;9.10;84.30;;;;;;5096767;28;20063;-68
2022/03/06 11:59:22;;;;;;;5.10;3.30;;;9.70;86.30;;;;;;5094156;28;20472;-68
2022/03/06 12:01:51;;;;;;;5.80;3.90;;;10.00;83.30;;;;;;5072559;28;20052;-67
2022/03/06 12:04:32;;;;;;;4.45;3.30;;;9.90;79.80;;;;;;5093729;28;20043;-68
2022/03/06 12:07:08;;;;;;;5.70;3.88;;;9.80;77.60;;;;;;5094078;28;20376;-72
2022/03/06 12:09:42;;;;;;;6.50;4.03;;;9.90;81.00;;;;;;5077592;28;20079;-70
2022/03/06 12:12:16;;;;;;;9.63;4.70;;;10.10;80.00;;;;;;5093417;28;20036;-72
2022/03/06 12:14:45;;;;;;;5.47;3.92;;;10.30;78.30;;;;;;5093110;28;20323;-72
2022/03/06 12:17:11;;;;;;;5.28;3.75;;;10.70;79.10;;;;;;5064649;28;20047;-72
2022/03/06 12:19:43;;;;;;;4.90;3.67;;;10.40;79.10;;;;;;5077667;28;20040;-70
2022/03/06 12:22:09;;;;;;;4.85;3.67;;;10.20;78.00;;;;;;5094233;28;20046;-70
2022/03/06 12:24:35;;;;;;;5.85;3.70;;;10.30;78.60;;;;;;5076664;28;20044;-69
2022/03/06 12:27:10;;;;;;;4.20;3.60;;;10.00;77.70;;;;;;5094217;28;20044;-70
2022/03/06 12:29:46;;;;;;;4.32;3.40;;;10.00;76.60;;;;;;5077254;28;20048;-71
2022/03/06 12:32:31;;;;;;;4.97;3.58;;;9.90;76.20;;;;;;5080665;28;20047;-70
2022/03/06 12:35:00;;;;;;;4.55;3.22;;;9.70;74.00;;;;;;5093857;28;20051;-69
2022/03/06 12:37:35;;;;;;;5.82;3.72;;;9.60;77.20;;;;;;5086689;28;20040;-68
2022/03/06 12:40:05;;;;;;;5.97;4.05;;;10.10;79.50;;;;;;5075212;28;20048;-70
2022/03/06 12:42:33;;;;;;;5.95;3.97;;;10.20;77.20;;;;;;5093334;28;20495;-75
2022/03/06 12:45:01;;;;;;;6.68;3.75;;;10.50;78.60;;;;;;5093633;28;20044;-70
2022/03/06 12:47:29;;;;;;;4.65;3.97;;;10.20;77.70;;;;;;5077090;28;20126;-71
2022/03/06 12:49:56;;;;;;;5.68;3.88;;;10.30;77.80;;;;;;5059781;28;20036;-70
2022/03/06 12:52:28;;;;;;;5.60;3.97;;;10.30;77.80;;;;;;5093917;28;20052;-72
2022/03/06 12:54:55;;;;;;;6.60;3.70;;;10.30;77.00;;;;;;5076190;28;20040;-77